Time;durP1;ratioP1;P1;durP2;ratioP2;P2;SDS_P1;SDS_P2;PMS_P1;PMS_P2;Temp;Humidity;BMP_temperature;BMP_pressure;BME280_temperature;BME280_humidity;BME280_pressure;Samples;Min_cycle;Max_cycle;Signal;HPM_P1;HPM_P2
2022/04/07 00:01:29;;;;;;;27.50;16.50;;;358.70;1945.60;;;;;;5074687;28;20491;-77
2022/04/07 00:03:55;;;;;;;28.00;16.67;;;358.80;1971.20;;;;;;5074748;28;20051;-76
2022/04/07 00:06:21;;;;;;;27.73;14.88;;;358.80;1996.80;;;;;;5056788;28;20060;-79
2022/04/07 00:08:47;;;;;;;36.85;16.77;;;358.80;1843.20;;;;;;5074036;28;20443;-77
2022/04/07 00:11:12;;;;;;;27.33;15.25;;;358.80;1971.20;;;;;;5056637;28;20116;-79
2022/04/07 00:13:38;;;;;;;29.58;15.85;;;358.70;1920.00;;;;;;5056302;28;20029;-77
2022/04/07 00:16:04;;;;;;;23.83;13.43;;;358.80;1868.80;;;;;;5056621;28;20103;-76
2022/04/07 00:18:31;;;;;;;21.73;13.75;;;358.80;1843.20;;;;;;5056146;28;20047;-78
2022/04/07 00:20:57;;;;;;;24.30;12.00;;;358.70;1894.40;;;;;;5074410;28;20066;-78
2022/04/07 00:23:22;;;;;;;19.80;13.02;;;358.70;1868.80;;;;;;5056489;28;20021;-77
2022/04/07 00:25:49;;;;;;;16.92;11.43;;;358.70;1843.20;;;;;;5056281;28;20475;-77
2022/04/07 00:28:15;;;;;;;21.40;11.95;;;358.70;1817.60;;;;;;5074058;28;20028;-78
2022/04/07 00:30:41;;;;;;;21.10;12.07;;;358.70;1792.00;;;;;;5056044;28;20028;-76
2022/04/07 00:33:07;;;;;;;21.98;11.02;;;358.70;1792.00;;;;;;5057867;28;20077;-77
2022/04/07 00:35:34;;;;;;;17.13;10.10;;;358.70;1766.40;;;;;;5056579;28;20033;-77
2022/04/07 00:38:00;;;;;;;18.45;9.77;;;358.70;1817.60;;;;;;5056433;28;20540;-77
2022/04/07 00:40:26;;;;;;;15.15;9.55;;;358.70;1843.20;;;;;;5073178;28;20032;-76
2022/04/07 00:42:52;;;;;;;16.73;10.13;;;358.70;1843.20;;;;;;5074207;28;20026;-77
2022/04/07 00:45:21;;;;;;;23.55;11.40;;;358.70;1894.40;;;;;;5074479;28;20024;-78
2022/04/07 00:47:48;;;;;;;21.75;10.60;;;358.70;1920.00;;;;;;5056182;28;20064;-77
2022/04/07 00:50:16;;;;;;;27.83;12.57;;;358.60;1945.60;;;;;;5052145;28;20057;-78
2022/04/07 00:52:48;;;;;;;17.60;10.15;;;358.60;1971.20;;;;;;5052507;28;20066;-76
2022/04/07 00:55:15;;;;;;;20.08;11.57;;;358.70;1945.60;;;;;;5053864;28;20025;-77
2022/04/07 00:57:42;;;;;;;26.92;11.63;;;358.80;1945.60;;;;;;5054850;28;20037;-77
2022/04/07 01:00:10;;;;;;;23.27;11.57;;;358.70;1971.20;;;;;;5073524;28;20027;-77
2022/04/07 01:02:36;;;;;;;15.82;8.20;;;358.60;1971.20;;;;;;5073491;28;20548;-78
2022/04/07 01:05:08;;;;;;;26.23;10.77;;;358.60;1996.80;;;;;;5055977;28;20043;-77
2022/04/07 01:07:37;;;;;;;22.42;11.48;;;358.60;2022.40;;;;;;5055263;28;20039;-79
2022/04/07 01:10:04;;;;;;;25.30;12.85;;;358.50;2073.60;;;;;;5072165;28;20024;-79
2022/04/07 01:12:30;;;;;;;17.23;10.93;;;358.50;2099.20;;;;;;5073225;28;20032;-77
2022/04/07 01:14:59;;;;;;;16.80;8.65;;;358.60;2124.80;;;;;;5073393;28;20025;-77
2022/04/07 01:17:25;;;;;;;21.30;9.30;;;358.60;2099.20;;;;;;5055454;28;20036;-79
2022/04/07 01:19:51;;;;;;;30.92;9.35;;;358.50;2124.80;;;;;;5073062;28;20036;-78
2022/04/07 01:22:19;;;;;;;21.25;8.60;;;358.50;2150.40;;;;;;5055288;28;20036;-78
2022/04/07 01:24:46;;;;;;;26.67;8.38;;;358.50;2201.60;;;;;;5054805;28;20425;-77
2022/04/07 01:27:13;;;;;;;23.95;8.70;;;358.50;2176.00;;;;;;5055127;28;20031;-79
2022/04/07 01:29:39;;;;;;;18.65;6.93;;;358.50;2150.40;;;;;;5073086;28;20092;-78
2022/04/07 01:32:10;;;;;;;26.10;8.57;;;358.60;2099.20;;;;;;5055134;28;20566;-77
2022/04/07 01:34:37;;;;;;;23.70;5.95;;;358.60;2099.20;;;;;;5073915;28;20047;-77
2022/04/07 01:37:03;;;;;;;37.15;9.02;;;358.60;2099.20;;;;;;5072980;28;20064;-76
2022/04/07 01:39:30;;;;;;;27.90;7.35;;;358.60;2099.20;;;;;;5073143;28;20463;-77
2022/04/07 01:41:56;;;;;;;26.88;7.35;;;358.60;2124.80;;;;;;5054935;28;20020;-77
2022/04/07 01:44:24;;;;;;;22.27;7.03;;;358.50;2099.20;;;;;;5050362;28;20036;-76
2022/04/07 01:46:51;;;;;;;26.13;7.20;;;358.60;2124.80;;;;;;5051593;28;20109;-77
2022/04/07 01:49:19;;;;;;;23.92;7.10;;;358.50;2099.20;;;;;;5051557;28;20021;-77
2022/04/07 01:51:46;;;;;;;24.90;7.03;;;358.50;2099.20;;;;;;5052948;28;20115;-78
2022/04/07 01:54:13;;;;;;;21.58;6.38;;;358.50;2124.80;;;;;;5051476;28;20025;-78
2022/04/07 01:56:43;;;;;;;26.92;7.50;;;358.50;2099.20;;;;;;5051397;28;20112;-77
2022/04/07 01:59:09;;;;;;;27.77;6.82;;;358.40;2073.60;;;;;;5051292;28;20484;-76
2022/04/07 02:01:35;;;;;;;34.78;7.20;;;358.50;2073.60;;;;;;5051249;28;20032;-78
2022/04/07 02:04:02;;;;;;;25.52;6.00;;;358.50;2124.80;;;;;;5051275;28;20053;-77
2022/04/07 02:06:28;;;;;;;25.45;6.20;;;358.60;2124.80;;;;;;5052465;28;20029;-78
2022/04/07 02:08:54;;;;;;;26.83;6.30;;;358.60;2099.20;;;;;;5070587;28;20020;-79
2022/04/07 02:11:23;;;;;;;17.63;5.63;;;358.50;2124.80;;;;;;5054317;28;20028;-78
2022/04/07 02:13:49;;;;;;;32.88;6.68;;;358.50;2073.60;;;;;;5054349;28;20025;-78
2022/04/07 02:16:16;;;;;;;33.22;7.22;;;358.40;2201.60;;;;;;5071838;28;20482;-76
2022/04/07 02:18:42;;;;;;;33.33;6.20;;;358.40;2176.00;;;;;;5054300;28;20037;-78
2022/04/07 02:21:08;;;;;;;23.85;6.68;;;358.40;2176.00;;;;;;5054321;28;20024;-78
2022/04/07 02:23:42;;;;;;;20.48;6.05;;;358.40;2124.80;;;;;;5072195;28;20487;-78
2022/04/07 02:26:16;;;;;;;21.48;5.75;;;358.40;2124.80;;;;;;5054256;28;20025;-77
2022/04/07 02:28:43;;;;;;;39.67;8.07;;;358.40;2124.80;;;;;;5071893;28;20585;-78
2022/04/07 02:31:10;;;;;;;23.10;5.80;;;358.40;2099.20;;;;;;5053993;28;20024;-76
2022/04/07 02:33:36;;;;;;;24.02;6.75;;;358.50;2124.80;;;;;;5050255;28;20025;-79
2022/04/07 02:36:04;;;;;;;31.00;6.93;;;358.60;2073.60;;;;;;5054025;28;20025;-76
2022/04/07 02:38:29;;;;;;;26.85;8.30;;;358.50;2073.60;;;;;;5072546;28;20029;-77
2022/04/07 02:40:55;;;;;;;31.42;5.70;;;358.60;2073.60;;;;;;5072009;28;20044;-78
2022/04/07 02:43:21;;;;;;;26.63;6.85;;;358.60;2073.60;;;;;;5053874;28;20056;-76
2022/04/07 02:45:47;;;;;;;32.90;7.68;;;358.60;2099.20;;;;;;5071705;28;20410;-78
2022/04/07 02:48:12;;;;;;;31.98;8.52;;;358.60;2099.20;;;;;;5071896;28;20028;-78
2022/04/07 02:50:38;;;;;;;24.02;7.80;;;358.60;2099.20;;;;;;5049878;28;20052;-78
2022/04/07 02:53:04;;;;;;;29.75;7.13;;;358.60;2124.80;;;;;;5051778;28;20033;-77
2022/04/07 02:55:30;;;;;;;28.50;6.85;;;358.40;2150.40;;;;;;5051343;28;20108;-77
2022/04/07 02:57:59;;;;;;;24.38;8.57;;;358.40;2201.60;;;;;;5050090;28;20120;-77
2022/04/07 03:00:25;;;;;;;25.08;6.25;;;358.50;2201.60;;;;;;5051726;28;20032;-78
2022/04/07 03:02:51;;;;;;;25.83;6.40;;;358.40;2124.80;;;;;;5058798;28;20072;-77
2022/04/07 03:05:17;;;;;;;22.85;6.95;;;333.70;2201.60;;;;;;5071340;28;20509;-76
2022/04/07 03:07:43;;;;;;;34.88;7.35;;;333.70;2150.40;;;;;;5053519;28;20395;-77
2022/04/07 03:10:09;;;;;;;28.05;6.93;;;358.40;2201.60;;;;;;5071553;28;20517;-78
2022/04/07 03:12:35;;;;;;;25.00;8.13;;;358.40;2227.20;;;;;;5071605;28;20047;-77
2022/04/07 03:15:02;;;;;;;29.85;9.15;;;358.40;2227.20;;;;;;5071612;28;20025;-77
2022/04/07 03:17:28;;;;;;;25.50;8.35;;;358.40;2227.20;;;;;;5071209;28;20072;-79
2022/04/07 03:19:53;;;;;;;31.40;8.45;;;358.40;2252.80;;;;;;5053587;28;20052;-78
2022/04/07 03:22:19;;;;;;;34.85;11.70;;;358.40;2252.80;;;;;;5053490;28;20047;-78
2022/04/07 03:24:48;;;;;;;32.97;10.10;;;333.60;2329.60;;;;;;5053418;28;20086;-77
2022/04/07 03:27:14;;;;;;;33.17;10.30;;;333.60;2304.00;;;;;;5053299;28;20032;-77
2022/04/07 03:29:40;;;;;;;28.98;8.50;;;333.70;2252.80;;;;;;5053392;28;20025;-78
2022/04/07 03:32:06;;;;;;;29.15;10.68;;;358.40;2227.20;;;;;;5049716;28;20033;-79
2022/04/07 03:34:36;;;;;;;34.42;9.60;;;358.40;2201.60;;;;;;5051299;28;20062;-78
2022/04/07 03:37:06;;;;;;;30.83;8.70;;;358.40;2227.20;;;;;;5068932;28;20040;-77
2022/04/07 03:39:35;;;;;;;34.88;7.88;;;333.70;2124.80;;;;;;5054588;28;20098;-76
2022/04/07 03:42:01;;;;;;;25.55;8.30;;;333.70;2227.20;;;;;;5070679;28;20372;-77
2022/04/07 03:44:26;;;;;;;32.28;8.65;;;333.60;2329.60;;;;;;5053341;28;20042;-77
2022/04/07 03:46:52;;;;;;;32.05;7.88;;;333.50;2329.60;;;;;;5053410;28;20024;-78
2022/04/07 03:49:20;;;;;;;33.78;10.05;;;333.40;2329.60;;;;;;5052983;28;20112;-77
2022/04/07 03:51:45;;;;;;;29.52;9.02;;;333.20;2329.60;;;;;;5053093;28;20048;-77
2022/04/07 03:54:11;;;;;;;28.55;9.75;;;333.20;2329.60;;;;;;5070923;28;20024;-77
2022/04/07 03:56:37;;;;;;;23.52;7.57;;;333.10;2329.60;;;;;;5071140;28;20028;-77
2022/04/07 03:59:03;;;;;;;38.17;7.13;;;333.00;2329.60;;;;;;5053182;28;20039;-76
2022/04/07 04:01:29;;;;;;;22.50;8.43;;;332.80;2329.60;;;;;;5070667;28;20024;-76
2022/04/07 04:03:55;;;;;;;23.35;6.25;;;308.10;2304.00;;;;;;5071141;28;20024;-76
2022/04/07 04:06:21;;;;;;;29.50;7.13;;;308.00;2304.00;;;;;;5049385;28;20471;-77
2022/04/07 04:08:47;;;;;;;47.05;10.13;;;;;;;;;;5068735;28;20031;-76
2022/04/07 04:11:13;;;;;;;28.55;7.78;;;332.80;2329.60;;;;;;5056550;28;20123;-75
2022/04/07 04:13:40;;;;;;;23.88;6.35;;;308.10;2304.00;;;;;;5074353;28;20445;-75
2022/04/07 04:16:06;;;;;;;32.72;7.45;;;307.80;2304.00;;;;;;5056667;28;20028;-75
2022/04/07 04:18:32;;;;;;;28.33;12.23;;;307.60;2304.00;;;;;;5056351;28;20052;-75
2022/04/07 04:20:58;;;;;;;27.17;8.90;;;307.40;2304.00;;;;;;5074670;28;20028;-76
2022/04/07 04:23:24;;;;;;;27.00;8.18;;;;;;;;;;5056319;28;20037;-74
2022/04/07 04:25:50;;;;;;;36.05;14.18;;;;;;;;;;5055727;28;20095;-76
2022/04/07 04:28:16;;;;;;;26.55;9.70;;;;;;;;;;5074109;28;20028;-77
2022/04/07 04:30:42;;;;;;;34.63;14.70;;;;;;;;;;5056270;28;20028;-75
2022/04/07 04:33:08;;;;;;;30.25;10.05;;;;;;;;;;5074098;28;20452;-75
2022/04/07 04:35:34;;;;;;;23.58;8.65;;;;;;;;;;5074110;28;20052;-76
2022/04/07 04:38:00;;;;;;;37.10;9.27;;;;;;;;;;5055714;28;20495;-75
2022/04/07 04:40:27;;;;;;;27.42;8.15;;;;;;;;;;5072873;28;20016;-75
2022/04/07 04:42:53;;;;;;;20.77;6.45;;;;;;;;;;5074183;28;20020;-76
2022/04/07 04:45:19;;;;;;;31.40;6.15;;;;;;;;;;5074178;28;20020;-76
2022/04/07 04:47:45;;;;;;;23.80;7.18;;;;;;;;;;5073489;28;20664;-75
2022/04/07 04:50:14;;;;;;;29.95;5.57;;;;;;;;;;5055730;28;20136;-77
2022/04/07 04:52:41;;;;;;;25.58;7.43;;;;;;;;;;5054520;28;20075;-77
2022/04/07 04:55:07;;;;;;;29.35;8.60;;;;;;;;;;5072004;28;20538;-75
2022/04/07 04:57:33;;;;;;;31.40;7.15;;;;;;;;;;5072229;28;20040;-75
2022/04/07 05:00:00;;;;;;;25.13;7.55;;;;;;;;;;5047137;28;20028;-75
2022/04/07 05:02:26;;;;;;;27.98;7.82;;;;;;;;;;5043127;28;20051;-76
2022/04/07 05:04:52;;;;;;;23.38;11.32;;;;;;;;;;5071002;28;20025;-76
2022/04/07 05:07:18;;;;;;;28.20;10.82;;;;;;;;;;5046032;28;20024;-77
2022/04/07 05:09:44;;;;;;;31.77;9.90;;;;;;;;;;5071605;28;20056;-78
2022/04/07 05:12:10;;;;;;;37.90;11.70;;;;;;;;;;5049940;28;20024;-76
2022/04/07 05:14:36;;;;;;;47.92;19.17;;;;;;;;;;5071000;28;20017;-76
2022/04/07 05:17:02;;;;;;;26.48;10.65;;;;;;;;;;5049834;28;20028;-77
2022/04/07 05:19:28;;;;;;;37.35;14.02;;;;;;;;;;5052204;28;20495;-77
2022/04/07 05:21:54;;;;;;;42.45;12.57;;;;;;;;;;5053869;28;20122;-77
2022/04/07 05:24:20;;;;;;;28.38;12.65;;;;;;;;;;5054292;28;20054;-79
2022/04/07 05:26:47;;;;;;;42.33;13.35;;;;;;;;;;5051681;28;20074;-79
2022/04/07 05:29:13;;;;;;;36.47;16.63;;;;;;;;;;5053638;28;20020;-77
2022/04/07 05:31:39;;;;;;;48.22;21.42;;;;;;;;;;5055158;28;20493;-76
2022/04/07 05:34:05;;;;;;;36.17;15.35;;;;;;;;;;5055144;28;20032;-76
2022/04/07 05:36:31;;;;;;;36.97;15.18;;;;;;;;;;5055107;28;20098;-77
2022/04/07 05:38:58;;;;;;;53.17;16.98;;;;;;;;;;5072987;28;20060;-78
2022/04/07 05:41:24;;;;;;;55.08;19.95;;;;;;;;;;5073196;28;20024;-76
2022/04/07 05:43:50;;;;;;;47.25;22.60;;;;;;;;;;5072952;28;20020;-76
2022/04/07 05:46:16;;;;;;;44.20;22.58;;;;;;;;;;5073679;28;20094;-78
2022/04/07 05:48:42;;;;;;;47.35;23.63;;;;;;;;;;5073163;28;20020;-77
2022/04/07 05:51:08;;;;;;;50.63;24.60;;;;;;;;;;5072588;28;20055;-77
2022/04/07 05:53:34;;;;;;;41.85;20.52;;;;;;;;;;5054587;28;20115;-77
2022/04/07 05:56:01;;;;;;;45.15;19.02;;;;;;;;;;5054733;28;20051;-77
2022/04/07 05:58:28;;;;;;;38.58;16.58;;;;;;;;;;5072708;28;20036;-76
2022/04/07 06:00:54;;;;;;;42.25;15.02;;;;;;;;;;5054744;28;20059;-76
2022/04/07 06:03:20;;;;;;;38.05;15.73;;;;;;;;;;5071875;28;20024;-78
2022/04/07 06:05:52;;;;;;;48.67;17.20;;;;;;;;;;5054954;28;20024;-77
2022/04/07 06:08:18;;;;;;;37.88;16.95;;;;;;;;;;5072348;28;20013;-76
2022/04/07 06:10:45;;;;;;;41.90;17.35;;;;;;;;;;5054399;28;20103;-77
2022/04/07 06:13:11;;;;;;;31.73;15.10;;;;;;;;;;5071964;28;20021;-78
2022/04/07 06:15:39;;;;;;;36.92;14.73;;;;;;;;;;5072232;28;20028;-78
2022/04/07 06:18:06;;;;;;;44.35;16.42;;;;;;;;;;5054312;28;20032;-78
2022/04/07 06:20:32;;;;;;;38.65;16.27;;;;;;;;;;5054401;28;20174;-78
2022/04/07 06:23:00;;;;;;;39.65;14.73;;;;;;;;;;5072342;28;20028;-78
2022/04/07 06:25:26;;;;;;;36.65;12.75;;;;;;;;;;5054271;28;20452;-79
2022/04/07 06:27:52;;;;;;;30.75;13.23;;;;;;;;;;5072106;28;20491;-77
2022/04/07 06:30:19;;;;;;;38.45;14.63;;;;;;;;;;5054028;28;20475;-77
2022/04/07 06:32:45;;;;;;;35.40;13.15;;;;;;;;;;5071457;28;20072;-78
2022/04/07 06:35:12;;;;;;;29.63;12.88;;;;;;;;;;5054255;28;20036;-76
2022/04/07 06:37:46;;;;;;;27.35;12.63;;;;;;;;;;5072112;28;20407;-77
2022/04/07 06:40:12;;;;;;;32.13;14.90;;;;;;;;;;5054208;28;20063;-78
2022/04/07 06:42:38;;;;;;;40.00;22.25;;;;;;;;;;5071589;28;20029;-77
2022/04/07 06:45:05;;;;;;;44.35;18.40;;;;;;;;;;5054248;28;20029;-77
2022/04/07 06:47:37;;;;;;;38.55;25.08;;;;;;;;;;5054444;28;20063;-77
2022/04/07 06:50:04;;;;;;;39.22;14.30;;;;;;;;;;5071473;28;20021;-78
2022/04/07 06:52:30;;;;;;;26.48;11.70;;;;;;;;;;5071563;28;20020;-77
2022/04/07 06:54:56;;;;;;;37.58;16.10;;;;;;;;;;5071513;28;20499;-77
2022/04/07 06:57:22;;;;;;;30.95;13.93;;;;;;;;;;5071620;28;20075;-77
2022/04/07 06:59:48;;;;;;;26.65;12.27;;;;;;;;;;5071850;28;20934;-77
2022/04/07 07:02:14;;;;;;;30.73;13.20;;;;;;;;;;5071921;28;20544;-77
2022/04/07 07:04:40;;;;;;;28.42;10.90;;;;;;;;;;5071822;28;20491;-77
2022/04/07 07:07:07;;;;;;;23.73;11.07;;;;;;;;;;5053679;28;20016;-78
2022/04/07 07:09:33;;;;;;;28.50;11.63;;;;;;;;;;5071206;28;20025;-77
2022/04/07 07:11:59;;;;;;;29.40;13.32;;;;;;;;;;5053679;28;20021;-77
2022/04/07 07:14:25;;;;;;;27.73;15.48;;;;;;;;;;5071771;28;20116;-78
2022/04/07 07:16:51;;;;;;;25.95;13.52;;;;;;;;;;5053548;28;20024;-77
2022/04/07 07:19:18;;;;;;;37.47;13.55;;;;;;;;;;5052426;28;20029;-78
2022/04/07 07:21:45;;;;;;;31.83;14.32;;;;;;;;;;5070193;28;20048;-78
2022/04/07 07:24:11;;;;;;;39.20;16.63;;;;;;;;;;5053223;28;20012;-78
2022/04/07 07:26:37;;;;;;;34.88;13.65;;;;;;;;;;5052672;28;20146;-80
2022/04/07 07:29:03;;;;;;;23.40;9.70;;;;;;;;;;5070795;28;20498;-78
2022/04/07 07:31:30;;;;;;;36.95;13.35;;;;;;;;;;5070354;28;20017;-77
2022/04/07 07:33:56;;;;;;;23.67;12.77;;;;;;;;;;5052756;28;20021;-77
2022/04/07 07:36:22;;;;;;;21.27;10.50;;;;;;;;;;5070401;28;20023;-77
2022/04/07 07:38:49;;;;;;;27.92;12.35;;;;;;;;;;5052256;28;20024;-76
2022/04/07 07:41:15;;;;;;;22.92;9.30;;;;;;;;;;5070746;28;20017;-75
2022/04/07 07:43:41;;;;;;;31.85;11.00;;;;;;;;;;5072769;28;20048;-79
2022/04/07 07:46:07;;;;;;;35.67;16.40;;;;;;;;;;5051326;28;20013;-78
2022/04/07 07:48:33;;;;;;;23.50;10.57;;;;;;;;;;5074614;28;20035;-77
2022/04/07 07:51:00;;;;;;;23.17;8.48;;;;;;;;;;5074726;28;20059;-77
2022/04/07 07:53:26;;;;;;;20.55;7.03;;;;;;;;;;5037046;28;20021;-77
2022/04/07 07:55:54;;;;;;;18.35;7.53;;;;;;;;;;5055874;28;20029;-80
2022/04/07 07:58:20;;;;;;;32.20;9.02;;;;;;;;;;5037470;28;20033;-79
2022/04/07 08:00:46;;;;;;;16.42;6.95;;;;;;;;;;5037195;28;20029;-76
2022/04/07 08:03:13;;;;;;;21.67;5.00;;;;;;;;;;5037044;28;20063;-76
2022/04/07 08:05:39;;;;;;;17.55;6.68;;;;;;;;;;5054473;28;20063;-76
2022/04/07 08:08:05;;;;;;;25.45;7.82;;;;;;;;;;5054414;28;20021;-76
2022/04/07 08:10:31;;;;;;;26.55;8.20;;;;;;;;;;5054580;28;20021;-76
2022/04/07 08:12:57;;;;;;;15.40;5.53;;;;;;;;;;5036692;28;20017;-78
2022/04/07 08:15:24;;;;;;;18.98;6.47;;;;;;;;;;5036807;28;20090;-76
2022/04/07 08:17:51;;;;;;;12.88;5.47;;;;;;;;;;5038762;28;20045;-76
2022/04/07 08:20:18;;;;;;;14.35;5.60;;;;;;;;;;5056613;28;20067;-76
2022/04/07 08:22:44;;;;;;;15.30;7.32;;;;;;;;;;5057015;28;20431;-76
2022/04/07 08:25:10;;;;;;;16.98;6.25;;;;;;;;;;5057321;28;20610;-77
2022/04/07 08:27:36;;;;;;;17.88;6.63;;;;;;;;;;5074060;28;20529;-76
2022/04/07 08:30:03;;;;;;;12.48;4.70;;;;;;;;;;5056260;28;20024;-76
2022/04/07 08:32:31;;;;;;;14.75;5.72;;;;;;;;;;5056077;28;20025;-77
2022/04/07 08:34:58;;;;;;;10.70;5.22;;;;;;;;;;5056181;28;20016;-76
2022/04/07 08:37:24;;;;;;;13.85;7.65;;;;;;;;;;5056050;28;20056;-77
2022/04/07 08:39:53;;;;;;;11.05;4.90;;;;;;;;;;5073636;28;20103;-76
2022/04/07 08:42:22;;;;;;;14.38;6.53;;;;;;;;;;5056053;28;20091;-76
2022/04/07 08:44:48;;;;;;;15.73;6.03;;;;;;;;;;5056277;28;20017;-76
2022/04/07 08:47:18;;;;;;;15.80;5.25;;;;;;;;;;5056024;28;20490;-76
2022/04/07 08:49:44;;;;;;;20.67;7.75;;;;;;;;;;5073539;28;20032;-76
2022/04/07 08:52:10;;;;;;;11.38;5.22;;;;;;;;;;5056251;28;20044;-79
2022/04/07 08:54:37;;;;;;;17.67;4.13;;;;;;;;;;5055890;28;20037;-77
2022/04/07 08:57:03;;;;;;;16.65;4.53;;;;;;;;;;5055728;28;20459;-79
2022/04/07 08:59:30;;;;;;;23.23;7.13;;;;;;;;;;5073676;28;20032;-78
2022/04/07 09:02:01;;;;;;;18.65;5.15;;;;;;;;;;5055713;28;20486;-79
2022/04/07 09:04:29;;;;;;;13.77;5.75;;;;;;;;;;5073575;28;20024;-78
2022/04/07 09:06:56;;;;;;;16.35;6.00;;;;;;;;;;5073559;28;20020;-77
2022/04/07 09:09:23;;;;;;;12.48;6.90;;;;;;;;;;5055372;28;20451;-76
2022/04/07 09:11:55;;;;;;;9.98;3.30;;;;;;;;;;5073467;28;20021;-79
2022/04/07 09:14:21;;;;;;;17.55;4.63;;;;;;;;;;5073562;28;20029;-77
2022/04/07 09:16:48;;;;;;;10.35;4.18;;;;;;;;;;5055234;28;20028;-76
2022/04/07 09:19:14;;;;;;;15.40;4.72;;;;;;;;;;5054896;28;20032;-76
2022/04/07 09:21:40;;;;;;;14.70;4.47;;;;;;;;;;5055404;28;20120;-75
2022/04/07 09:24:07;;;;;;;18.73;8.15;;;;;;;;;;5055181;28;20021;-77
2022/04/07 09:26:42;;;;;;;12.20;4.22;;;;;;;;;;5055346;28;20052;-78
2022/04/07 09:29:14;;;;;;;16.17;5.75;;;;;;;;;;5055153;28;20489;-76
2022/04/07 09:31:41;;;;;;;12.50;3.90;;;;;;;;;;5054962;28;20517;-78
2022/04/07 09:34:07;;;;;;;15.65;5.18;;;;;;;;;;5054928;28;20032;-77
2022/04/07 09:36:33;;;;;;;20.50;5.35;;;;;;;;;;5054960;28;20070;-75
2022/04/07 09:39:01;;;;;;;14.55;5.70;;;;;;;;;;5054880;28;20120;-76
2022/04/07 09:41:31;;;;;;;9.82;4.45;;;;;;;;;;5072882;28;20020;-76
2022/04/07 09:43:58;;;;;;;19.67;5.85;;;;;;;;;;5054204;28;20020;-77
2022/04/07 09:46:25;;;;;;;13.25;7.20;;;;;;;;;;5054485;28;20035;-78
2022/04/07 09:49:12;;;;;;;11.65;5.00;;;;;;;;;;5054816;28;20046;-75
2022/04/07 09:51:43;;;;;;;16.02;4.65;;;384.90;2329.60;;;;;;5054433;28;20064;-77
2022/04/07 09:54:10;;;;;;;10.15;3.25;;;409.60;2355.20;;;;;;5054849;28;20131;-77
2022/04/07 09:56:37;;;;;;;21.40;4.22;;;;;;;;;;5055620;28;20029;-76
2022/04/07 09:59:07;;;;;;;10.65;3.22;;;;;;;;;;5072010;28;20028;-77
2022/04/07 10:01:40;;;;;;;12.05;4.90;;;;;;;;;;5072231;28;20029;-76
2022/04/07 10:04:07;;;;;;;20.80;5.23;;;;;;;;;;5053735;28;20016;-75
2022/04/07 10:06:33;;;;;;;17.48;4.78;;;;;;;;;;5052739;28;20078;-78
2022/04/07 10:09:01;;;;;;;12.77;4.63;;;;;;;;;;5071914;28;20021;-76
2022/04/07 10:11:30;;;;;;;14.63;4.90;;;;;;;;;;5072561;28;20025;-77
2022/04/07 10:13:56;;;;;;;14.20;5.32;;;;;;;;;;5054234;28;20187;-76
2022/04/07 10:16:23;;;;;;;20.60;5.10;;;;;;;;;;5072428;28;20028;-76
2022/04/07 10:18:55;;;;;;;17.70;5.15;;;;;;;;;;5071743;28;20032;-76
2022/04/07 10:21:48;;;;;;;12.77;3.05;;;;;;;;;;5071897;28;20504;-77
2022/04/07 10:24:17;;;;;;;15.87;4.23;;;;;;;;;;5056188;28;20066;-79
2022/04/07 10:26:44;;;;;;;9.25;3.25;;;;;;;;;;5054211;28;20025;-75
2022/04/07 10:29:19;;;;;;;12.32;4.65;;;;;;;;;;5053856;28;20356;-76
2022/04/07 10:32:05;;;;;;;13.43;5.18;;;;;;;;;;5054057;28;20074;-76
2022/04/07 10:34:32;;;;;;;9.48;3.20;;;;;;;;;;5071043;28;20025;-75
2022/04/07 10:37:08;;;;;;;10.60;2.92;;;;;;;;;;5052992;28;20025;-76
2022/04/07 10:39:34;;;;;;;14.80;4.05;;;;;;;;;;5048138;28;20040;-77
2022/04/07 10:42:01;;;;;;;21.48;6.40;;;;;;;;;;5050545;28;20017;-78
2022/04/07 10:44:28;;;;;;;10.77;4.05;;;;;;;;;;5050459;28;20024;-78
2022/04/07 10:47:02;;;;;;;12.00;4.38;;;;;;;;;;5051076;28;20025;-75
2022/04/07 10:49:30;;;;;;;10.52;4.05;;;;;;;;;;5049930;28;20379;-76
2022/04/07 10:51:57;;;;;;;15.27;6.60;;;;;;;;;;5052776;28;20109;-76
2022/04/07 10:54:24;;;;;;;16.30;5.65;;;;;;;;;;5052827;28;20411;-79
2022/04/07 10:56:52;;;;;;;21.30;5.18;;;;;;;;;;5053794;28;20032;-76
2022/04/07 10:59:21;;;;;;;11.38;3.28;;;;;;;;;;5054982;28;20036;-76
2022/04/07 11:01:47;;;;;;;13.48;4.53;;;;;;;;;;5071829;28;20489;-76
2022/04/07 11:04:22;;;;;;;13.70;5.32;;;;;;;;;;5053423;28;20024;-79
2022/04/07 11:07:24;;;;;;;12.82;2.97;;;;;;;;;;5071012;28;20029;-76
2022/04/07 11:09:52;;;;;;;14.00;3.58;;;;;;;;;;5071494;28;20029;-76
2022/04/07 11:12:22;;;;;;;16.70;4.80;;;;;;;;;;5053778;28;20021;-78
2022/04/07 11:14:49;;;;;;;16.30;4.22;;;;;;;;;;5052984;28;20040;-76
2022/04/07 11:17:27;;;;;;;30.33;7.13;;;;;;;;;;5054659;28;20024;-76
2022/04/07 11:20:06;;;;;;;21.80;4.47;;;;;;;;;;5038045;28;20048;-77
2022/04/07 11:22:45;;;;;;;10.18;3.63;;;;;;;;;;5054311;28;20024;-75
2022/04/07 11:25:13;;;;;;;5.50;3.30;;;;;;;;;;5057594;28;20028;-76
2022/04/07 11:27:42;;;;;;;10.90;3.75;;;;;;;;;;5056710;28;20170;-75
2022/04/07 11:30:10;;;;;;;14.55;4.07;;;;;;;;;;5056987;28;20025;-77
2022/04/07 11:32:38;;;;;;;7.80;3.67;;;;;;;;;;5057293;28;20016;-77
2022/04/07 11:35:14;;;;;;;14.15;4.07;;;;;;;;;;5074456;28;20019;-77
2022/04/07 11:37:44;;;;;;;12.95;4.15;;;;;;;;;;5056669;28;20040;-78
2022/04/07 11:40:10;;;;;;;15.55;5.35;;;;;;;;;;5057417;28;20406;-79
2022/04/07 11:42:37;;;;;;;10.55;3.80;;;;;;;;;;5074670;28;20363;-76
2022/04/07 11:45:03;;;;;;;11.60;5.47;;;;;;;;;;5057048;28;20056;-76
2022/04/07 11:47:34;;;;;;;20.70;7.72;;;;;;;;;;5074739;28;20093;-78
2022/04/07 11:50:02;;;;;;;15.73;4.57;;;;;;;;;;5057086;28;20021;-77
2022/04/07 11:52:29;;;;;;;21.33;6.28;;;;;;;;;;5056855;28;20070;-77
2022/04/07 11:54:59;;;;;;;9.25;4.90;;;;;;;;;;5056903;28;20024;-76
2022/04/07 11:57:25;;;;;;;21.10;6.25;;;;;;;;;;5074649;28;20112;-76
2022/04/07 11:59:55;;;;;;;17.27;6.25;;;;;;;;;;5075061;28;20063;-76
2022/04/07 12:02:22;;;;;;;17.38;5.55;;;;;;;;;;5057759;28;20069;-78
2022/04/07 12:04:54;;;;;;;11.65;5.60;;;;;;;;;;5070206;28;20072;-77
2022/04/07 12:07:21;;;;;;;9.98;3.38;;;;;;;;;;5056696;28;20029;-77
2022/04/07 12:09:47;;;;;;;8.38;2.92;;;;;;;;;;5056927;28;20086;-77
2022/04/07 12:12:14;;;;;;;8.32;2.97;;;;;;;;;;5074431;28;20100;-78
2022/04/07 12:14:42;;;;;;;9.35;3.60;;;;;;;;;;5056372;28;20032;-77
2022/04/07 12:17:09;;;;;;;8.48;3.08;;;;;;;;;;5074143;28;20021;-75
2022/04/07 12:19:45;;;;;;;20.60;4.40;;;;;;;;;;5052857;28;20375;-77
2022/04/07 12:22:12;;;;;;;9.57;3.55;;;;;;;;;;5053272;28;20024;-76
2022/04/07 12:24:38;;;;;;;40.00;6.57;;;;;;;;;;5054340;28;20028;-76
2022/04/07 12:27:04;;;;;;;8.25;3.20;;;;;;;;;;5053004;28;20016;-78
2022/04/07 12:29:34;;;;;;;14.18;4.70;;;;;;;;;;5054817;28;20032;-80
2022/04/07 12:32:06;;;;;;;8.65;3.53;;;;;;;;;;5056575;28;20387;-76
2022/04/07 12:34:33;;;;;;;5.40;2.73;;;;;;;;;;5074704;28;20035;-79
2022/04/07 12:37:00;;;;;;;8.25;2.80;;;512.40;1587.20;;;;;;5074168;28;20033;-76
2022/04/07 12:39:35;;;;;;;8.88;3.17;;;;;;;;;;5056252;28;20039;-77
2022/04/07 12:42:08;;;;;;;13.30;8.80;;;;;;;;;;5056069;28;20024;-74
2022/04/07 12:44:35;;;;;;;14.63;6.75;;;;;;;;;;5055890;28;20085;-78
2022/04/07 12:47:08;;;;;;;7.90;2.58;;;;;;;;;;5055487;28;20036;-79
2022/04/07 12:49:35;;;;;;;;;;;;;;;;;;5074131;28;20741;-75
2022/04/07 12:52:04;;;;;;;13.00;3.60;;;640.40;1305.60;;;;;;5055854;28;19922;-77
2022/04/07 12:54:29;;;;;;;7.03;3.47;;;564.00;1433.60;;;;;;5055764;28;20025;-78
2022/04/07 12:57:14;;;;;;;20.33;4.90;;;589.40;1408.00;;;;;;5073673;28;20027;-76
2022/04/07 12:59:53;;;;;;;13.80;3.72;;;589.40;1331.20;;;;;;5073519;28;20051;-78
2022/04/07 13:02:19;;;;;;;7.88;3.70;;;589.50;1408.00;;;;;;5052320;28;20028;-75
2022/04/07 13:04:52;;;;;;;6.50;2.47;;;614.60;1382.40;;;;;;5062054;28;20035;-78
2022/04/07 13:07:20;;;;;;;12.15;3.67;;;563.30;1459.20;;;;;;5071307;28;20075;-75
2022/04/07 13:09:49;;;;;;;14.57;6.13;;;563.50;1484.80;;;;;;5054958;28;20039;-79
2022/04/07 13:12:16;;;;;;;9.80;4.68;;;589.70;1408.00;;;;;;5073117;28;20147;-78
2022/04/07 13:14:43;;;;;;;16.30;6.28;;;;;;;;;;5055176;28;20055;-77
2022/04/07 13:17:09;;;;;;;28.65;13.88;;;;;;;;;;5052730;28;20040;-77
2022/04/07 13:19:36;;;;;;;9.20;4.40;;;;;;;;;;5053160;28;20043;-78
2022/04/07 13:22:02;;;;;;;9.82;3.63;;;563.70;1459.20;;;;;;5057502;28;20021;-76
2022/04/07 13:24:29;;;;;;;11.25;4.38;;;563.70;1433.60;;;;;;5047837;28;20031;-77
2022/04/07 13:26:55;;;;;;;7.32;3.50;;;538.40;1484.80;;;;;;5053489;28;20498;-77
2022/04/07 13:29:21;;;;;;;7.80;3.60;;;564.10;1433.60;;;;;;5057673;28;20025;-76
2022/04/07 13:31:48;;;;;;;10.40;3.50;;;;;;;;;;5072971;28;20020;-77